Terminal Aerodrome Forecast
Issued by NWS Pueblo, CO

Home | Current Version | Previous Version | Text Only | Print | Product List | Glossary On
Versions: 1 2 3 4 5 6 7 8 9 10 11 12 13 14 15 16 17 18 19 20 21 22 23 24 25 26 27 28 29 30 31 32 33 34 35
000
FTUS45 KPUB 170138 AAA
TAFALS
TAF AMD
KALS 170138Z 1702/1724 10008KT 4SM -SN BR FEW008 BKN020
      TEMPO 1702/1705 2SM -SN BR SCT008 OVC012
     FM170900 VRB04KT 1/2SM FZFG OVC002
     FM171700 VRB05KT 2SM BR OVC008
     FM171900 VRB06KT P6SM SCT100=

USA.gov is the U.S. government's official web portal to all federal, state and local government web resources and services.